Time;durP1;ratioP1;P1;durP2;ratioP2;P2;SDS_P1;SDS_P2;PMS_P1;PMS_P2;Temp;Humidity;BMP_temperature;BMP_pressure;BME280_temperature;BME280_humidity;BME280_pressure;Samples;Min_cycle;Max_cycle;Signal;HPM_P1;HPM_P2
2022/12/22 03:28:08;;;;;;;17.77;15.30;;;;;;;8.32;100.00;100039.25;5261570;28;20040;-77
2022/12/22 03:30:39;;;;;;;20.20;15.85;;;;;;;8.28;100.00;100035.84;5264180;28;20033;-76
2022/12/22 03:33:11;;;;;;;19.37;16.07;;;;;;;8.30;100.00;100035.81;5265476;28;20040;-77
2022/12/22 03:35:43;;;;;;;18.47;15.23;;;;;;;8.29;100.00;100032.38;5264505;28;20036;-76
2022/12/22 03:38:14;;;;;;;18.70;15.02;;;;;;;8.27;100.00;100023.72;5265315;28;20109;-76
2022/12/22 03:40:46;;;;;;;16.80;13.77;;;;;;;8.26;100.00;100024.63;5265337;28;20040;-76
2022/12/22 03:46:30;;;;;;;15.95;13.52;;;;;;;8.26;100.00;100022.03;5265575;28;20256;-78
2022/12/22 03:49:09;;;;;;;19.60;13.73;;;;;;;8.24;100.00;100018.59;5265164;28;20029;-77
2022/12/22 03:51:42;;;;;;;19.50;14.18;;;;;;;8.22;100.00;100022.94;5265641;28;20087;-77
2022/12/22 03:54:16;;;;;;;16.95;14.93;;;;;;;8.22;100.00;100020.34;5265016;28;20067;-77
2022/12/22 03:56:48;;;;;;;17.90;13.73;;;;;;;8.17;100.00;100020.41;5265127;28;20541;-77
2022/12/22 03:59:20;;;;;;;16.00;14.15;;;;;;;8.18;100.00;100022.16;5264965;28;20033;-77
2022/12/22 04:01:53;;;;;;;17.40;13.90;;;;;;;8.20;100.00;100011.75;5264971;28;20504;-77
2022/12/22 04:04:25;;;;;;;18.90;14.45;;;;;;;8.17;100.00;100006.59;5264897;28;20178;-78
2022/12/22 04:06:57;;;;;;;16.92;13.75;;;;;;;8.14;100.00;100001.44;5264953;28;20032;-77
2022/12/22 04:09:28;;;;;;;16.30;13.60;;;;;;;8.10;100.00;100003.25;5264789;28;20041;-77
2022/12/22 04:14:49;;;;;;;18.55;13.02;;;;;;;8.11;100.00;100006.69;5264770;28;20412;-77
2022/12/22 04:17:20;;;;;;;19.63;14.53;;;;;;;8.15;100.00;100008.34;5264870;28;20033;-78
2022/12/22 04:19:52;;;;;;;19.60;15.27;;;;;;;8.11;100.00;100001.50;5264510;28;20107;-77
2022/12/22 04:22:23;;;;;;;22.90;15.73;;;;;;;8.16;100.00;100005.75;5264697;28;20040;-76
2022/12/22 04:24:54;;;;;;;18.47;14.17;;;;;;;8.16;100.00;100005.75;5264878;28;20108;-77
2022/12/22 04:27:25;;;;;;;17.37;14.43;;;;;;;8.21;100.00;99998.72;5264494;28;20040;-78
2022/12/22 04:29:57;;;;;;;20.77;15.13;;;;;;;8.21;100.00;100001.31;5264493;28;20091;-77
2022/12/22 04:32:28;;;;;;;26.17;16.63;;;;;;;8.22;100.00;100015.16;5264298;28;20088;-78
2022/12/22 04:35:00;;;;;;;21.07;15.10;;;;;;;8.23;100.00;100009.09;5263545;28;20044;-76
2022/12/22 04:37:31;;;;;;;18.87;14.17;;;;;;;8.21;100.00;100013.44;5264189;28;20056;-76
2022/12/22 04:40:03;;;;;;;17.27;13.30;;;;;;;8.24;100.00;100008.19;5264307;28;20570;-76
2022/12/22 04:42:35;;;;;;;17.97;13.87;;;;;;;8.24;100.00;100013.38;5263360;28;20039;-77
2022/12/22 04:45:07;;;;;;;21.00;16.00;;;;;;;8.25;100.00;100022.91;5264498;28;20033;-76
2022/12/22 04:47:38;;;;;;;25.50;16.83;;;;;;;8.24;100.00;100023.78;5263925;28;20037;-76
2022/12/22 04:50:09;;;;;;;31.87;18.00;;;;;;;8.24;100.00;100025.53;5263979;28;20123;-77
2022/12/22 04:52:41;;;;;;;22.43;15.17;;;;;;;8.28;100.00;100024.59;5264038;28;20033;-76
2022/12/22 04:55:12;;;;;;;20.53;15.50;;;;;;;8.29;100.00;100021.09;5263968;28;20139;-77
2022/12/22 04:57:44;;;;;;;20.57;15.37;;;;;;;8.29;100.00;100022.00;5263366;28;20032;-76
2022/12/22 05:00:15;;;;;;;24.50;15.63;;;;;;;8.27;100.00;100013.34;5263479;28;20464;-77
2022/12/22 05:02:47;;;;;;;19.83;14.90;;;;;;;8.21;100.00;100018.63;5263982;28;20033;-78
2022/12/22 05:05:18;;;;;;;19.87;15.00;;;;;;;8.18;100.00;100009.16;5263692;28;20028;-75
2022/12/22 05:07:49;;;;;;;21.37;15.63;;;;;;;8.20;100.00;100003.94;5263620;28;20025;-75
2022/12/22 05:10:21;;;;;;;20.03;14.37;;;;;;;8.17;100.00;100001.41;5263524;28;20040;-75
2022/12/22 05:12:55;;;;;;;23.97;16.03;;;;;;;8.19;100.00;100016.09;5263598;28;20039;-74
2022/12/22 05:15:32;;;;;;;23.58;17.00;;;;;;;8.20;100.00;100006.53;5262906;28;20033;-75
2022/12/22 05:18:03;;;;;;;20.98;16.45;;;;;;;8.15;100.00;100005.75;5263425;28;20029;-76
2022/12/22 05:20:35;;;;;;;23.70;16.03;;;;;;;8.13;100.00;100003.19;5263260;28;20054;-76
2022/12/22 05:23:06;;;;;;;28.77;17.20;;;;;;;8.08;100.00;100011.91;5263142;28;20028;-75
2022/12/22 05:25:37;;;;;;;30.10;17.87;;;;;;;8.06;100.00;100026.66;5263062;28;20428;-75
2022/12/22 05:28:09;;;;;;;28.20;17.87;;;;;;;7.99;100.00;100026.75;5261865;28;20117;-75
2022/12/22 05:30:40;;;;;;;28.70;18.57;;;;;;;8.01;100.00;100032.75;5263110;28;20025;-75
2022/12/22 05:33:11;;;;;;;29.57;20.00;;;;;;;8.04;100.00;100032.72;5263109;28;20091;-75
2022/12/22 05:35:43;;;;;;;30.07;19.80;;;;;;;8.04;100.00;100032.72;5262861;28;20037;-75
2022/12/22 05:38:14;;;;;;;31.77;20.13;;;;;;;8.07;100.00;100034.44;5262910;28;20056;-75
2022/12/22 05:40:46;;;;;;;33.20;20.33;;;;;;;8.05;100.00;100036.19;5261605;28;20090;-75
2022/12/22 05:43:17;;;;;;;39.87;20.60;;;;;;;8.09;100.00;100039.59;5262944;28;20028;-76
2022/12/22 05:45:48;;;;;;;35.97;19.50;;;;;;;8.13;100.00;100043.84;5263494;28;20033;-76
2022/12/22 05:48:20;;;;;;;33.00;19.53;;;;;;;8.12;100.00;100043.00;5245245;28;20044;-76
2022/12/22 05:50:51;;;;;;;29.33;18.87;;;;;;;8.14;100.00;100046.41;5262506;28;20036;-76
2022/12/22 05:53:23;;;;;;;39.70;18.20;;;;;;;8.11;100.00;100043.03;5262634;28;20060;-76
2022/12/22 05:55:54;;;;;;;38.63;17.17;;;;;;;8.12;100.00;100050.78;5261359;28;20566;-76
2022/12/22 05:58:26;;;;;;;40.73;18.03;;;;;;;8.13;100.00;100059.44;5261344;28;20045;-76
2022/12/22 06:00:58;;;;;;;41.00;17.17;;;;;;;8.13;100.00;100072.41;5263168;28;20029;-74
2022/12/22 06:03:30;;;;;;;48.85;19.13;;;;;;;8.14;100.00;100081.91;5262762;28;20041;-75
2022/12/22 06:06:01;;;;;;;32.53;17.57;;;;;;;8.11;100.00;100087.16;5262663;28;20380;-74
2022/12/22 06:08:33;;;;;;;26.27;16.63;;;;;;;8.12;100.00;100092.31;5262850;28;20036;-75
2022/12/22 06:11:04;;;;;;;36.00;18.47;;;;;;;8.10;100.00;100095.81;5262871;28;20033;-75
2022/12/22 06:13:35;;;;;;;28.33;17.17;;;;;;;8.11;100.00;100098.38;5262353;28;20040;-76
2022/12/22 06:16:07;;;;;;;30.77;16.70;;;;;;;8.09;100.00;100097.56;5262383;28;20215;-75
2022/12/22 06:18:38;;;;;;;25.53;16.37;;;;;;;8.12;100.00;100104.44;5262361;28;20074;-76
2022/12/22 06:21:09;;;;;;;36.43;18.63;;;;;;;8.10;100.00;100104.47;5261902;28;20071;-76
2022/12/22 06:23:41;;;;;;;33.67;18.30;;;;;;;8.10;100.00;100107.06;5262498;28;20036;-76
2022/12/22 06:26:12;;;;;;;35.63;19.47;;;;;;;8.11;100.00;100118.31;5261052;28;20037;-75
2022/12/22 06:28:43;;;;;;;37.27;20.20;;;;;;;8.10;100.00;100116.56;5262214;28;20041;-76
2022/12/22 06:31:15;;;;;;;36.43;20.33;;;;;;;8.13;100.00;100129.50;5262195;28;20109;-77
2022/12/22 06:33:47;;;;;;;39.87;22.17;;;;;;;8.12;100.00;100131.25;5262142;28;20138;-76
2022/12/22 06:36:18;;;;;;;50.40;24.17;;;;;;;8.12;100.00;100131.25;5262040;28;20068;-77
2022/12/22 06:38:49;;;;;;;51.23;27.37;;;;;;;8.17;100.00;100136.41;5262158;28;20037;-77
2022/12/22 06:44:18;;;;;;;56.30;29.58;;;;;;;8.15;100.00;100146.81;5253438;28;20120;-76
2022/12/22 06:46:50;;;;;;;62.30;31.47;;;;;;;8.15;100.00;100145.94;5262188;28;20107;-76
2022/12/22 06:49:21;;;;;;;64.07;33.77;;;;;;;8.18;100.00;100151.09;5261745;28;20033;-76
2022/12/22 06:51:52;;;;;;;69.90;34.07;;;;;;;8.15;100.00;100144.19;5261918;28;20116;-76
2022/12/22 06:54:24;;;;;;;71.80;34.03;;;;;;;8.19;100.00;100164.06;5261686;28;20480;-77
2022/12/22 06:56:55;;;;;;;73.80;35.00;;;;;;;8.19;100.00;100170.97;5261742;28;20053;-76
2022/12/22 06:59:27;;;;;;;66.43;32.43;;;;;;;8.14;100.00;100160.66;5262095;28;20109;-77
2022/12/22 07:01:58;;;;;;;78.50;35.03;;;;;;;8.14;100.00;100183.16;5260770;28;20039;-77
2022/12/22 07:04:30;;;;;;;71.00;34.37;;;;;;;8.14;100.00;100177.97;5262951;28;20071;-77
2022/12/22 07:07:01;;;;;;;67.13;33.70;;;;;;;8.16;100.00;100194.38;5265948;28;20042;-77
2022/12/22 07:09:33;;;;;;;73.70;33.50;;;;;;;8.13;100.00;100200.50;5265787;28;20033;-76
2022/12/22 07:12:04;;;;;;;67.13;32.80;;;;;;;8.11;100.00;100206.56;5266103;28;20039;-77
2022/12/22 07:14:36;;;;;;;64.10;30.53;;;;;;;8.08;100.00;100204.84;5266343;28;20033;-76
2022/12/22 07:17:08;;;;;;;67.63;32.73;;;;;;;8.10;100.00;100228.19;5265569;28;20119;-76
2022/12/22 07:19:39;;;;;;;66.53;32.67;;;;;;;8.08;100.00;100224.78;5265507;28;20036;-76
2022/12/22 07:22:10;;;;;;;65.60;33.57;;;;;;;8.03;100.00;100215.31;5265777;28;20464;-76
2022/12/22 07:24:42;;;;;;;68.17;34.90;;;;;;;8.04;100.00;100206.63;5265697;28;20033;-76
2022/12/22 07:27:13;;;;;;;72.20;35.47;;;;;;;7.99;100.00;100210.16;5265527;28;20127;-75
2022/12/22 07:29:44;;;;;;;65.87;33.80;;;;;;;7.92;100.00;100211.09;5247473;28;20476;-76
2022/12/22 07:32:16;;;;;;;68.53;32.97;;;;;;;7.85;100.00;100203.38;5265492;28;20025;-77
2022/12/22 07:34:47;;;;;;;63.37;33.07;;;;;;;7.82;100.00;100218.13;5265761;28;20471;-76
2022/12/22 07:37:18;;;;;;;69.30;34.83;;;;;;;7.79;100.00;100219.03;5265372;28;20032;-76
2022/12/22 07:39:50;;;;;;;72.27;36.70;;;;;;;7.76;100.00;100219.06;5265423;28;20036;-75
2022/12/22 07:45:12;;;;;;;77.43;37.28;;;;;;;7.80;100.00;100238.06;5265771;28;20117;-77
2022/12/22 07:47:44;;;;;;;78.50;36.78;;;;;;;7.81;100.00;100250.16;5264850;28;20025;-76
2022/12/22 07:50:24;;;;;;;73.50;37.13;;;;;;;7.80;100.00;100251.03;5264962;28;20436;-78
2022/12/22 07:53:03;;;;;;;75.32;38.35;;;;;;;7.76;100.00;100251.91;5263712;28;20079;-76
2022/12/22 07:55:35;;;;;;;73.30;37.42;;;;;;;7.76;100.00;100255.41;5264870;28;20053;-76
2022/12/22 07:58:06;;;;;;;76.40;38.97;;;;;;;7.79;100.00;100268.34;5264152;28;20082;-76
2022/12/22 08:00:38;;;;;;;77.87;39.63;;;;;;;7.81;100.00;100284.75;5264341;28;20033;-76
2022/12/22 08:03:09;;;;;;;81.23;39.43;;;;;;;7.77;100.00;100292.56;5264885;28;20033;-76
2022/12/22 08:05:41;;;;;;;79.37;39.03;;;;;;;7.80;100.00;100295.13;5263196;28;20479;-76
2022/12/22 08:08:12;;;;;;;76.97;40.17;;;;;;;7.81;100.00;100305.50;5264519;28;20428;-75
2022/12/22 08:10:43;;;;;;;77.90;39.67;;;;;;;7.81;100.00;100305.50;5264291;28;20125;-76
2022/12/22 08:13:15;;;;;;;73.50;38.37;;;;;;;7.78;100.00;100320.25;5264358;28;20032;-77
2022/12/22 08:15:46;;;;;;;75.17;37.60;;;;;;;7.79;100.00;100322.81;5263726;28;20028;-76
2022/12/22 08:18:17;;;;;;;74.80;37.03;;;;;;;7.81;100.00;100323.66;5264063;28;20396;-76
2022/12/22 08:20:50;;;;;;;69.27;36.03;;;;;;;7.83;100.00;100315.88;5263590;28;20186;-76
2022/12/22 08:23:21;;;;;;;82.35;38.30;;;;;;;7.89;100.00;100320.13;5264347;28;20423;-76
2022/12/22 08:26:03;;;;;;;65.20;34.77;;;;;;;7.90;100.00;100327.91;5263985;28;20025;-76
2022/12/22 08:28:56;;;;;;;60.78;34.47;;;;;;;7.91;100.00;100324.44;5264439;28;20112;-76
2022/12/22 08:31:29;;;;;;;58.65;32.17;;;;;;;7.92;100.00;100330.47;5263737;28;20036;-76
2022/12/22 08:34:03;;;;;;;57.33;31.98;;;;;;;7.89;100.00;100335.69;5264126;28;20074;-76
2022/12/22 08:36:39;;;;;;;60.33;32.25;;;;;;;7.89;100.00;100343.47;5264177;28;20025;-76
2022/12/22 08:39:12;;;;;;;54.53;32.17;;;;;;;7.87;100.00;100353.88;5263903;28;20029;-76
2022/12/22 08:41:49;;;;;;;50.90;30.55;;;;;;;7.89;100.00;100367.72;5264099;28;20037;-76
2022/12/22 08:44:26;;;;;;;51.88;30.40;;;;;;;7.88;100.00;100376.38;5264110;28;20417;-76
2022/12/22 08:46:58;;;;;;;50.33;29.15;;;;;;;7.90;100.00;100381.56;5263703;28;20078;-76
2022/12/22 08:49:30;;;;;;;48.15;30.00;;;;;;;7.84;100.00;100392.81;5264306;28;20452;-76
2022/12/22 08:52:01;;;;;;;47.50;29.17;;;;;;;7.90;100.00;100410.94;5263485;28;20045;-76
2022/12/22 08:54:33;;;;;;;53.00;29.30;;;;;;;7.91;100.00;100411.81;5263342;28;20029;-76
2022/12/22 08:57:04;;;;;;;52.43;30.83;;;;;;;7.97;100.00;100415.22;5245982;28;20034;-76
2022/12/22 08:59:36;;;;;;;43.13;27.83;;;;;;;7.91;100.00;100419.63;5263466;28;20037;-76
2022/12/22 09:02:07;;;;;;;49.93;29.07;;;;;;;7.80;100.00;100414.50;5263416;28;20021;-76
2022/12/22 09:04:38;;;;;;;53.60;31.23;;;;;;;7.70;100.00;100410.25;5263452;28;20029;-76
2022/12/22 09:07:10;;;;;;;51.47;32.60;;;;;;;7.64;100.00;100431.91;5263377;28;20036;-76
2022/12/22 09:09:41;;;;;;;54.80;33.03;;;;;;;7.59;100.00;100431.91;5263061;28;20029;-76
2022/12/22 09:12:13;;;;;;;50.80;31.53;;;;;;;7.53;100.00;100423.31;5263699;28;20056;-76
2022/12/22 09:14:44;;;;;;;48.70;28.40;;;;;;;7.46;100.00;100423.34;5263184;28;20175;-76
2022/12/22 09:17:16;;;;;;;56.23;30.63;;;;;;;7.40;100.00;100420.78;5263683;28;20036;-77
2022/12/22 09:19:47;;;;;;;53.70;30.37;;;;;;;7.41;100.00;100426.84;5262992;28;20033;-76
2022/12/22 09:22:18;;;;;;;55.13;31.93;;;;;;;7.34;100.00;100430.34;5262726;28;20041;-76
2022/12/22 09:24:50;;;;;;;53.47;30.93;;;;;;;7.30;100.00;100435.53;5263084;28;20131;-76
2022/12/22 09:27:21;;;;;;;59.63;32.67;;;;;;;7.47;100.00;100429.38;5262715;28;20091;-76
2022/12/22 09:29:52;;;;;;;60.47;32.10;;;;;;;7.66;100.00;100436.22;5263011;28;20033;-76
2022/12/22 09:32:24;;;;;;;57.70;32.83;;;;;;;7.87;100.00;100444.69;5261865;28;20120;-77
2022/12/22 09:34:55;;;;;;;53.97;33.00;;;;;;;8.06;100.00;100440.25;5263590;28;20057;-77
2022/12/22 09:37:27;;;;;;;49.10;29.00;;;;;;;8.22;100.00;100447.03;5262836;28;20116;-76
2022/12/22 09:39:58;;;;;;;46.40;29.90;;;;;;;8.50;100.00;100453.75;5262526;28;20122;-77
2022/12/22 09:42:33;;;;;;;47.50;31.17;;;;;;;8.52;100.00;100452.84;5261387;28;20108;-77
2022/12/22 09:45:10;;;;;;;41.33;29.13;;;;;;;8.76;100.00;100462.16;5262487;28;20025;-76
2022/12/22 09:47:41;;;;;;;46.78;28.02;;;;;;;8.61;100.00;100462.28;5262629;28;20033;-77
2022/12/22 09:50:16;;;;;;;42.13;28.23;;;;;;;8.53;100.00;100466.69;5262572;28;20364;-77
2022/12/22 09:52:53;;;;;;;40.42;26.98;;;;;;;8.45;100.00;100469.38;5262306;28;20472;-76
2022/12/22 09:55:24;;;;;;;43.13;27.40;;;;;;;8.28;100.00;100474.69;5262832;28;20106;-76
2022/12/22 09:57:56;;;;;;;37.57;28.20;;;;;;;8.15;100.00;100467.88;5262303;28;20037;-76
2022/12/22 10:00:28;;;;;;;40.50;29.77;;;;;;;8.06;100.00;100475.72;5262574;28;20089;-76
2022/12/22 10:03:22;;;;;;;41.03;29.55;;;;;;;8.13;100.00;100478.28;5262382;28;20036;-76
2022/12/22 10:06:11;;;;;;;46.92;30.15;;;;;;;8.11;100.00;100479.16;5262247;28;20040;-77
2022/12/22 10:08:42;;;;;;;43.10;29.02;;;;;;;8.14;100.00;100489.50;5263078;28;20460;-77
2022/12/22 10:11:16;;;;;;;44.60;28.63;;;;;;;8.19;100.00;100492.94;5261906;28;20144;-77
2022/12/22 10:13:47;;;;;;;36.50;25.88;;;;;;;8.14;100.00;100494.72;5262442;28;20037;-75
2022/12/22 10:16:25;;;;;;;39.13;25.03;;;;;;;8.05;100.00;100506.03;5262661;28;20025;-77
2022/12/22 10:19:10;;;;;;;39.28;26.40;;;;;;;8.02;100.00;100504.31;5262354;28;20055;-75
2022/12/22 10:21:41;;;;;;;37.60;22.73;;;;;;;8.00;100.00;100500.88;5262073;28;20037;-74
2022/12/22 10:24:24;;;;;;;35.50;21.17;;;;;;;8.11;100.00;100505.97;5262031;28;20056;-75
2022/12/22 10:26:58;;;;;;;31.63;19.38;;;;;;;8.19;100.00;100499.00;5261590;28;20483;-76
2022/12/22 10:29:31;;;;;;;26.67;18.75;;;;;;;8.30;100.00;100498.91;5261620;28;20029;-76
2022/12/22 10:32:17;;;;;;;29.50;18.02;;;;;;;8.48;100.00;100507.44;5262080;28;20041;-76
2022/12/22 10:35:05;;;;;;;25.48;15.75;;;;;;;8.49;100.00;100506.59;5262805;28;20365;-76
2022/12/22 10:37:38;;;;;;;24.17;17.10;;;;;;;8.39;100.00;100511.81;5261902;28;20025;-76
2022/12/22 10:40:21;;;;;;;23.65;15.45;;;;;;;8.46;100.00;100511.81;5263889;28;20060;-76
2022/12/22 10:42:54;;;;;;;26.23;17.52;;;;;;;8.35;100.00;100515.31;5264866;28;20058;-76
2022/12/22 10:45:26;;;;;;;25.13;16.33;;;;;;;8.40;100.00;100508.34;5266311;28;20067;-76
2022/12/22 10:47:58;;;;;;;27.73;16.42;;;;;;;8.51;100.00;100508.28;5266633;28;20045;-75
2022/12/22 10:50:29;;;;;;;25.43;16.30;;;;;;;8.82;100.00;100510.59;5264897;28;20033;-78
2022/12/22 10:53:02;;;;;;;24.90;16.30;;;;;;;8.94;100.00;100514.81;5266445;28;20128;-76
2022/12/22 10:55:34;;;;;;;25.73;15.80;;;;;;;9.13;100.00;100516.34;5265853;28;20499;-76
2022/12/22 10:58:09;;;;;;;24.00;16.25;;;;;;;9.68;100.00;100517.41;5265630;28;20036;-76
2022/12/22 11:00:40;;;;;;;22.80;15.18;;;;;;;9.69;100.00;100520.84;5264583;28;20040;-76
2022/12/22 11:03:15;;;;;;;20.97;13.43;;;;;;;9.37;100.00;100529.94;5264926;28;20383;-75
2022/12/22 11:05:46;;;;;;;20.45;12.93;;;;;;;9.25;100.00;100530.09;5265608;28;20040;-76
2022/12/22 11:08:19;;;;;;;18.63;12.20;;;;;;;9.21;100.00;100539.66;5266010;28;20025;-77
2022/12/22 11:11:21;;;;;;;18.75;12.23;;;;;;;9.59;100.00;100532.28;5264660;28;20082;-76
2022/12/22 11:14:02;;;;;;;22.52;11.27;;;;;;;9.80;100.00;100547.59;5266012;28;20029;-76
2022/12/22 11:16:50;;;;;;;20.65;13.95;;;;;;;9.88;100.00;100549.25;5265646;28;20033;-77
2022/12/22 11:20:02;;;;;;;20.25;14.52;;;;;;;9.95;100.00;100541.34;5266163;28;20546;-77
2022/12/22 11:23:21;;;;;;;27.38;17.02;;;;;;;10.02;100.00;100534.28;5253997;28;20052;-75
2022/12/22 11:26:22;;;;;;;30.25;17.88;;;;;;;10.37;100.00;100543.38;5221676;28;20342;-77
2022/12/22 11:29:28;;;;;;;21.52;16.58;;;;;;;10.69;98.56;100540.22;5214038;28;20141;-76
2022/12/22 11:32:02;;;;;;;24.77;18.35;;;;;;;10.30;98.31;100532.13;5253120;28;20106;-76
2022/12/22 11:34:44;;;;;;;22.67;17.65;;;;;;;9.99;99.59;100549.97;5265426;28;20033;-76
2022/12/22 11:37:25;;;;;;;24.10;20.00;;;;;;;10.00;100.00;100549.09;5264369;28;20029;-77
2022/12/22 11:40:10;;;;;;;29.52;20.15;;;;;;;9.85;99.38;100544.94;5265905;28;20123;-77
2022/12/22 11:43:14;;;;;;;26.42;19.60;;;;;;;10.08;100.00;100547.22;5264404;28;20073;-78
2022/12/22 11:46:20;;;;;;;25.00;19.30;;;;;;;9.90;100.00;100550.97;5265388;28;20025;-77
2022/12/22 11:48:57;;;;;;;27.65;19.85;;;;;;;9.90;100.00;100560.50;5242564;28;20045;-78
2022/12/22 11:51:47;;;;;;;25.85;19.52;;;;;;;9.81;99.98;100557.13;5264787;28;20079;-77
2022/12/22 11:54:58;;;;;;;25.60;19.38;;;;;;;9.71;100.00;100565.97;5265772;28;20448;-77
2022/12/22 11:57:38;;;;;;;20.55;17.92;;;;;;;9.48;99.50;100556.69;5265381;28;20037;-77
2022/12/22 12:00:13;;;;;;;24.35;17.67;;;;;;;9.33;99.09;100553.41;5265026;28;20029;-78
2022/12/22 12:03:17;;;;;;;23.98;15.20;;;;;;;9.32;98.63;100557.72;5265291;28;20024;-77
2022/12/22 12:06:06;;;;;;;17.38;14.50;;;;;;;9.31;98.16;100543.03;5265401;28;20033;-77
2022/12/22 12:09:14;;;;;;;21.08;13.73;;;;;;;9.27;98.99;100534.41;5264943;28;20081;-78
2022/12/22 12:12:01;;;;;;;21.70;13.23;;;;;;;9.12;98.41;100535.41;5258836;28;20048;-78
2022/12/22 12:14:32;;;;;;;18.05;13.18;;;;;;;8.97;99.16;100516.50;5264637;28;20033;-76
2022/12/22 12:17:21;;;;;;;19.23;14.80;;;;;;;8.99;100.00;100526.03;5265258;28;20360;-78
2022/12/22 12:20:06;;;;;;;20.58;13.32;;;;;;;9.13;100.00;100520.69;5262954;28;20445;-79
2022/12/22 12:23:06;;;;;;;18.30;15.43;;;;;;;9.13;100.00;100520.69;5264870;28;20083;-78
2022/12/22 12:25:56;;;;;;;18.73;14.70;;;;;;;9.15;100.00;100510.28;5264205;28;20130;-79
2022/12/22 12:28:48;;;;;;;19.33;14.20;;;;;;;9.21;100.00;100516.25;5263814;28;20032;-79
2022/12/22 12:31:26;;;;;;;20.65;14.93;;;;;;;9.20;100.00;100504.13;5264205;28;20024;-79
2022/12/22 12:34:00;;;;;;;20.50;13.65;;;;;;;9.29;100.00;100505.78;5265136;28;20060;-78
2022/12/22 12:37:00;;;;;;;21.38;14.57;;;;;;;9.35;100.00;100499.63;5263908;28;20037;-79
2022/12/22 12:39:40;;;;;;;19.85;13.77;;;;;;;9.25;100.00;100501.47;5264031;28;20464;-77
2022/12/22 12:42:23;;;;;;;15.95;12.43;;;;;;;9.45;100.00;100499.50;5264039;28;20053;-78
2022/12/22 12:44:55;;;;;;;16.45;12.38;;;;;;;9.46;100.00;100501.19;5263529;28;20175;-76
2022/12/22 12:47:34;;;;;;;18.37;12.73;;;;;;;9.37;100.00;100509.13;5262995;28;20165;-79
2022/12/22 12:50:27;;;;;;;22.23;15.70;;;;;;;9.24;100.00;100499.75;5263760;28;20479;-78
2022/12/22 12:53:09;;;;;;;18.17;13.63;;;;;;;9.13;100.00;100499.88;5263613;28;20057;-77
2022/12/22 12:55:40;;;;;;;20.33;14.85;;;;;;;9.12;100.00;100496.41;5262769;28;20349;-79
2022/12/22 12:58:37;;;;;;;23.13;14.83;;;;;;;9.21;100.00;100503.25;5263502;28;20112;-78
2022/12/22 13:01:10;;;;;;;20.45;14.45;;;;;;;9.25;100.00;100486.72;5264083;28;20482;-77
2022/12/22 13:03:42;;;;;;;;;;;;;;;9.40;100.00;100497.81;5263208;28;20035;-78
2022/12/22 13:06:44;;;;;;;19.95;16.15;;;;;;;9.45;100.00;100496.00;5262489;28;19952;-78
2022/12/22 13:09:24;;;;;;;22.70;16.20;;;;;;;9.36;100.00;100497.00;5263313;28;20037;-79
2022/12/22 13:11:56;;;;;;;24.15;16.98;;;;;;;9.25;100.00;100498.88;5263648;28;20532;-78
2022/12/22 13:14:56;;;;;;;23.97;17.60;;;;;;;9.17;100.00;100501.56;5264054;28;20115;-77
2022/12/22 13:17:51;;;;;;;25.92;18.77;;;;;;;8.97;100.00;100504.38;5263245;28;20021;-78
2022/12/22 13:20:34;;;;;;;23.08;19.30;;;;;;;8.80;100.00;100490.69;5257316;28;20069;-78
2022/12/22 13:23:13;;;;;;;20.83;17.52;;;;;;;8.72;100.00;100489.03;5262685;28;20056;-76
2022/12/22 13:25:57;;;;;;;21.52;17.05;;;;;;;8.71;100.00;100487.31;5262815;28;20028;-76
2022/12/22 13:28:29;;;;;;;17.75;14.70;;;;;;;8.65;100.00;100499.53;5263692;28;20104;-78
2022/12/22 13:31:05;;;;;;;18.33;13.50;;;;;;;8.63;100.00;100496.06;5262982;28;20116;-77
2022/12/22 13:33:40;;;;;;;16.98;12.27;;;;;;;8.67;100.00;100495.16;5262707;28;20115;-77
2022/12/22 13:36:18;;;;;;;13.65;11.18;;;;;;;8.68;100.00;100492.56;5262901;28;20021;-77
2022/12/22 13:39:02;;;;;;;15.20;11.15;;;;;;;8.73;100.00;100485.56;5262950;28;20035;-77
2022/12/22 13:41:33;;;;;;;13.48;11.10;;;;;;;8.73;100.00;100480.38;5261944;28;20033;-77
2022/12/22 13:44:09;;;;;;;12.60;10.83;;;;;;;8.78;100.00;100472.53;5262753;28;20086;-76
2022/12/22 13:46:42;;;;;;;14.57;11.05;;;;;;;8.84;100.00;100461.19;5262601;28;20445;-76
2022/12/22 13:49:18;;;;;;;17.20;11.38;;;;;;;8.81;100.00;100467.31;5262518;28;20033;-76
2022/12/22 13:51:50;;;;;;;14.68;11.40;;;;;;;8.88;100.00;100462.88;5262933;28;20040;-77
2022/12/22 13:54:28;;;;;;;14.52;10.98;;;;;;;8.83;100.00;100469.88;5262613;28;20385;-77
2022/12/22 13:57:03;;;;;;;13.07;10.65;;;;;;;8.78;100.00;100463.88;5262905;28;20090;-76
2022/12/22 13:59:47;;;;;;;17.42;11.15;;;;;;;8.73;100.00;100453.53;5262713;28;20411;-77
2022/12/22 14:02:20;;;;;;;14.02;10.75;;;;;;;8.67;100.00;100453.59;5262324;28;20387;-77
2022/12/22 14:05:05;;;;;;;;;;;;;;;8.80;100.00;100451.72;5262096;28;20460;-76
2022/12/22 14:07:36;;;;;;;13.25;11.20;;;;;;;8.63;100.00;100450.16;5262002;28;19908;-77
2022/12/22 14:10:09;;;;;;;16.70;11.97;;;;;;;8.53;100.00;100441.59;5262876;28;20025;-77
2022/12/22 14:12:43;;;;;;;;;;;;;;;8.63;100.00;100447.56;5262521;28;20043;-77
2022/12/22 14:15:17;;;;;;;14.63;10.75;;;;;;;8.55;100.00;100445.03;5262359;28;20359;-76
2022/12/22 14:17:49;;;;;;;16.50;11.32;;;;;;;8.52;100.00;100442.47;5262619;28;20032;-76
2022/12/22 14:20:31;;;;;;;12.57;9.53;;;;;;;8.50;100.00;100440.75;5262432;28;20112;-77
2022/12/22 14:23:20;;;;;;;12.35;9.65;;;;;;;8.30;100.00;100428.78;5262026;28;20482;-77
2022/12/22 14:25:54;;;;;;;14.50;9.45;;;;;;;8.18;100.00;100421.97;5262484;28;20051;-77
2022/12/22 14:28:38;;;;;;;12.93;10.45;;;;;;;8.05;100.00;100422.97;5262312;28;20037;-76
2022/12/22 14:31:12;;;;;;;12.60;9.32;;;;;;;8.03;100.00;100414.31;5262472;28;20021;-76
2022/12/22 14:34:04;;;;;;;11.38;10.13;;;;;;;8.02;100.00;100410.00;5262010;28;20029;-76
2022/12/22 14:36:44;;;;;;;10.65;9.50;;;;;;;8.00;100.00;100406.53;5261896;28;20028;-76
2022/12/22 14:39:29;;;;;;;13.20;10.32;;;;;;;7.92;100.00;100404.03;5262121;28;20032;-78
2022/12/22 14:42:03;;;;;;;12.90;9.77;;;;;;;7.89;100.00;100396.28;5261943;28;20029;-76
2022/12/22 14:44:43;;;;;;;11.82;9.43;;;;;;;7.93;100.00;100395.34;5260676;28;20021;-76
2022/12/22 14:47:25;;;;;;;13.18;10.15;;;;;;;7.93;100.00;100394.50;5261974;28;20029;-76
2022/12/22 14:50:17;;;;;;;14.10;9.75;;;;;;;7.97;100.00;100394.47;5261989;28;20055;-77
2022/12/22 14:52:57;;;;;;;14.85;10.40;;;;;;;7.84;100.00;100385.91;5261820;28;20490;-76
2022/12/22 14:55:33;;;;;;;14.80;11.75;;;;;;;7.81;100.00;100392.88;5261621;28;20438;-76
2022/12/22 14:58:07;;;;;;;14.68;11.55;;;;;;;7.75;100.00;100390.31;5261535;28;20037;-77
2022/12/22 15:00:47;;;;;;;17.55;11.55;;;;;;;7.75;100.00;100387.72;5261973;28;20029;-76
2022/12/22 15:03:31;;;;;;;25.25;13.50;;;;;;;7.72;100.00;100382.56;5261086;28;20056;-77
2022/12/22 15:06:27;;;;;;;18.42;12.85;;;;;;;7.67;100.00;100377.41;5261464;28;20140;-78
2022/12/22 15:09:01;;;;;;;18.17;14.68;;;;;;;7.69;100.00;100383.44;5261532;28;20096;-76
2022/12/22 15:11:36;;;;;;;16.77;13.60;;;;;;;7.64;100.00;100375.69;5260695;28;20384;-76
2022/12/22 15:14:16;;;;;;;18.42;14.45;;;;;;;7.60;100.00;100370.53;5261856;28;20033;-76
2022/12/22 15:16:48;;;;;;;18.77;14.05;;;;;;;7.55;100.00;100374.88;5261612;28;20036;-78
2022/12/22 15:19:21;;;;;;;21.10;14.83;;;;;;;7.53;100.00;100374.91;5261822;28;20029;-77
2022/12/22 15:21:52;;;;;;;19.38;15.30;;;;;;;7.53;100.00;100367.13;5261621;28;20436;-77
2022/12/22 15:24:24;;;;;;;20.27;16.50;;;;;;;7.54;100.00;100358.47;5260848;28;20025;-77
2022/12/22 15:26:55;;;;;;;19.57;16.00;;;;;;;7.52;100.00;100368.00;5264800;28;20033;-76
2022/12/22 15:29:27;;;;;;;17.57;13.90;;;;;;;7.50;100.00;100351.56;5265567;28;20029;-76